Time;durP1;ratioP1;P1;durP2;ratioP2;P2;SDS_P1;SDS_P2;PMS_P1;PMS_P2;Temp;Humidity;BMP_temperature;BMP_pressure;BME280_temperature;BME280_humidity;BME280_pressure;Samples;Min_cycle;Max_cycle;Signal;HPM_P1;HPM_P2
2024/04/01 00:00:34;;;;;;;10.52;5.35;;;9.70;93.70;;;;;;5063295;28;20147;-76
2024/04/01 00:03:00;;;;;;;9.23;5.88;;;9.60;93.70;;;;;;5045656;28;20100;-76
2024/04/01 00:05:26;;;;;;;9.23;5.80;;;9.60;93.80;;;;;;5055120;28;20029;-75
2024/04/01 00:07:52;;;;;;;8.63;5.25;;;9.60;93.90;;;;;;5068747;28;20040;-75
2024/04/01 00:10:18;;;;;;;9.43;5.85;;;9.60;94.00;;;;;;5045563;28;20324;-76
2024/04/01 00:12:44;;;;;;;8.18;5.22;;;9.60;94.10;;;;;;5057689;28;20729;-75
2024/04/01 00:15:10;;;;;;;10.68;4.93;;;9.60;94.10;;;;;;5060083;28;20124;-75
2024/04/01 00:17:35;;;;;;;9.07;4.80;;;9.60;94.30;;;;;;5050495;28;20064;-76
2024/04/01 00:20:02;;;;;;;6.53;4.13;;;9.60;94.40;;;;;;5058010;28;20055;-74
2024/04/01 00:22:27;;;;;;;7.22;4.53;;;9.60;94.40;;;;;;5054864;28;20133;-76
2024/04/01 00:24:53;;;;;;;10.52;5.20;;;9.60;94.50;;;;;;5050112;28;20123;-75
2024/04/01 00:27:18;;;;;;;9.10;4.50;;;9.70;94.50;;;;;;5040597;28;20418;-75
2024/04/01 00:29:44;;;;;;;7.63;4.43;;;9.80;94.50;;;;;;5059949;28;20613;-75
2024/04/01 00:32:10;;;;;;;8.60;4.82;;;9.90;94.50;;;;;;5056683;28;20028;-77
2024/04/01 00:34:35;;;;;;;11.00;5.35;;;9.90;94.40;;;;;;5058911;28;20059;-76
2024/04/01 00:37:01;;;;;;;9.32;4.38;;;9.90;94.40;;;;;;5056808;28;20025;-76
2024/04/01 00:39:26;;;;;;;7.43;4.10;;;10.00;94.40;;;;;;5058608;28;20039;-76
2024/04/01 00:41:52;;;;;;;8.38;4.28;;;10.00;94.50;;;;;;5058454;28;20052;-77
2024/04/01 00:44:18;;;;;;;8.95;4.65;;;10.10;94.30;;;;;;5054499;28;20028;-76
2024/04/01 00:46:43;;;;;;;8.48;4.53;;;10.10;94.20;;;;;;5056479;28;20040;-76
2024/04/01 00:49:10;;;;;;;8.88;4.40;;;10.10;94.20;;;;;;5037528;28;20457;-75
2024/04/01 00:51:38;;;;;;;8.07;4.50;;;10.20;94.20;;;;;;5058977;28;20078;-75
2024/04/01 00:54:05;;;;;;;11.38;4.43;;;10.20;94.10;;;;;;5056525;28;20021;-76
2024/04/01 00:56:32;;;;;;;10.15;6.00;;;10.30;94.00;;;;;;5038562;28;20056;-76
2024/04/01 00:59:00;;;;;;;10.13;6.10;;;10.20;94.00;;;;;;5056993;28;20069;-74
2024/04/01 01:01:29;;;;;;;9.48;4.90;;;10.20;93.90;;;;;;5041363;28;20842;-75
2024/04/01 01:03:55;;;;;;;8.43;5.22;;;10.10;93.80;;;;;;5055936;28;20071;-76
2024/04/01 01:06:21;;;;;;;9.80;4.80;;;10.10;93.80;;;;;;5055120;28;20064;-76
2024/04/01 01:08:47;;;;;;;8.65;4.85;;;10.10;93.80;;;;;;5055466;28;20037;-77
2024/04/01 01:11:13;;;;;;;8.98;5.03;;;10.00;94.00;;;;;;5044495;28;20035;-76
2024/04/01 01:13:39;;;;;;;8.25;4.53;;;9.90;94.00;;;;;;5057917;28;20469;-76
2024/04/01 01:16:05;;;;;;;8.50;5.50;;;9.90;94.10;;;;;;5053032;28;20082;-76
2024/04/01 01:18:31;;;;;;;7.68;4.95;;;9.90;94.10;;;;;;5056174;28;20040;-76
2024/04/01 01:20:57;;;;;;;10.02;5.25;;;9.80;94.20;;;;;;5057378;28;20081;-75
2024/04/01 01:23:23;;;;;;;8.27;4.82;;;9.80;94.20;;;;;;5056554;28;20028;-74
2024/04/01 01:25:48;;;;;;;8.90;4.93;;;9.70;94.20;;;;;;5056935;28;20040;-76
2024/04/01 01:28:14;;;;;;;8.20;5.25;;;9.70;94.20;;;;;;5055554;28;20088;-75
2024/04/01 01:30:40;;;;;;;7.90;5.07;;;9.60;94.30;;;;;;5038548;28;20025;-75
2024/04/01 01:33:07;;;;;;;8.98;5.53;;;9.60;94.40;;;;;;5059076;28;20833;-74
2024/04/01 01:35:36;;;;;;;7.78;4.88;;;9.60;94.40;;;;;;5055027;28;20121;-77
2024/04/01 01:38:03;;;;;;;8.52;5.30;;;9.60;94.50;;;;;;5056786;28;20162;-75
2024/04/01 01:40:29;;;;;;;8.82;5.00;;;9.60;94.50;;;;;;5055231;28;20121;-75
2024/04/01 01:42:55;;;;;;;7.68;4.85;;;9.50;94.50;;;;;;5058644;28;20024;-75
2024/04/01 01:45:21;;;;;;;8.18;4.93;;;9.50;94.50;;;;;;5056411;28;20099;-77
2024/04/01 01:47:47;;;;;;;7.20;4.88;;;9.50;94.50;;;;;;5045274;28;20056;-74
2024/04/01 01:50:12;;;;;;;8.98;5.15;;;9.40;94.60;;;;;;5062387;28;20755;-76
2024/04/01 01:52:38;;;;;;;7.18;4.68;;;9.40;94.40;;;;;;5054952;28;20490;-75
2024/04/01 01:55:05;;;;;;;6.35;4.47;;;9.40;94.50;;;;;;5057313;28;20043;-74
2024/04/01 01:57:31;;;;;;;9.07;5.28;;;9.40;94.60;;;;;;5053596;28;20036;-74
2024/04/01 01:59:57;;;;;;;7.93;5.65;;;9.40;94.60;;;;;;5048259;28;20098;-75
2024/04/01 02:02:23;;;;;;;7.60;5.57;;;9.40;94.60;;;;;;5059815;28;20435;-75
2024/04/01 02:04:49;;;;;;;8.27;4.90;;;9.40;94.60;;;;;;5056120;28;20075;-74
2024/04/01 02:07:15;;;;;;;6.97;4.75;;;9.40;94.60;;;;;;5051646;28;20718;-74
2024/04/01 02:09:41;;;;;;;9.75;5.57;;;9.40;94.60;;;;;;5056140;28;20481;-76
2024/04/01 02:12:09;;;;;;;7.30;5.10;;;9.30;94.60;;;;;;5049100;28;20547;-76
2024/04/01 02:14:36;;;;;;;10.02;5.20;;;9.30;94.70;;;;;;5042198;28;20141;-75
2024/04/01 02:17:02;;;;;;;8.70;5.47;;;9.30;94.60;;;;;;5052518;28;20112;-75
2024/04/01 02:19:29;;;;;;;8.70;5.38;;;9.30;94.70;;;;;;5052510;28;20104;-76
2024/04/01 02:21:55;;;;;;;8.63;5.40;;;9.30;94.70;;;;;;5055324;28;20033;-74
2024/04/01 02:24:20;;;;;;;9.07;5.55;;;9.20;94.80;;;;;;5055725;28;20025;-75
2024/04/01 02:26:49;;;;;;;7.78;5.53;;;9.20;94.80;;;;;;5034037;28;20871;-77
2024/04/01 02:29:15;;;;;;;8.63;5.35;;;9.20;94.80;;;;;;5056651;28;20037;-74
2024/04/01 02:31:41;;;;;;;8.80;5.40;;;9.20;94.90;;;;;;5040527;28;20032;-75
2024/04/01 02:34:10;;;;;;;8.80;6.15;;;9.20;94.80;;;;;;5057826;28;20374;-76
2024/04/01 02:36:38;;;;;;;8.75;5.30;;;9.20;94.90;;;;;;5056269;28;20944;-77
2024/04/01 02:39:04;;;;;;;10.52;6.18;;;9.20;94.90;;;;;;5057748;28;20023;-74
2024/04/01 02:41:33;;;;;;;8.27;5.60;;;9.10;94.80;;;;;;5061592;28;20024;-74
2024/04/01 02:43:59;;;;;;;7.72;5.88;;;9.10;94.90;;;;;;5059182;28;20484;-76
2024/04/01 02:46:25;;;;;;;7.95;5.47;;;9.10;94.90;;;;;;5065341;28;20109;-77
2024/04/01 02:48:51;;;;;;;8.43;5.72;;;9.10;94.90;;;;;;5063531;28;20527;-76
2024/04/01 02:51:17;;;;;;;9.43;6.38;;;9.10;95.00;;;;;;5064526;28;20182;-76
2024/04/01 02:53:47;;;;;;;8.75;5.68;;;9.10;95.00;;;;;;5058931;28;20115;-77
2024/04/01 02:56:19;;;;;;;7.90;5.13;;;9.10;95.10;;;;;;5046761;28;20089;-77
2024/04/01 02:58:44;;;;;;;8.52;5.32;;;9.10;95.00;;;;;;5052822;28;20563;-75
2024/04/01 03:01:11;;;;;;;8.48;6.00;;;9.00;95.10;;;;;;5057848;28;20093;-76
2024/04/01 03:03:36;;;;;;;9.15;6.30;;;9.00;95.10;;;;;;5059633;28;20104;-77
2024/04/01 03:06:02;;;;;;;8.52;6.03;;;9.00;95.10;;;;;;5061899;28;20024;-76
2024/04/01 03:08:31;;;;;;;7.88;6.35;;;9.00;95.10;;;;;;5058017;28;20041;-75
2024/04/01 03:11:01;;;;;;;9.10;6.28;;;9.00;95.10;;;;;;5054250;28;20360;-77
2024/04/01 03:13:27;;;;;;;8.10;5.85;;;9.00;95.20;;;;;;5047747;28;20020;-75
2024/04/01 03:15:54;;;;;;;9.30;5.90;;;8.90;95.10;;;;;;5051337;28;20025;-76
2024/04/01 03:18:21;;;;;;;8.52;6.38;;;8.90;95.20;;;;;;5060006;28;20021;-76
2024/04/01 03:20:47;;;;;;;9.50;6.50;;;8.90;95.30;;;;;;5045020;28;20514;-76
2024/04/01 03:23:14;;;;;;;9.73;6.00;;;8.90;95.30;;;;;;5059909;28;20630;-74
2024/04/01 03:25:40;;;;;;;9.75;6.05;;;8.80;95.30;;;;;;5057751;28;20051;-76
2024/04/01 03:28:05;;;;;;;9.15;6.25;;;8.80;95.30;;;;;;5061081;28;20036;-76
2024/04/01 03:30:31;;;;;;;8.95;5.97;;;8.80;95.40;;;;;;5057138;28;21745;-76
2024/04/01 03:32:57;;;;;;;9.40;6.90;;;8.80;95.40;;;;;;5065359;28;20024;-76
2024/04/01 03:35:22;;;;;;;9.75;6.30;;;8.80;95.50;;;;;;5057433;28;20055;-76
2024/04/01 03:37:48;;;;;;;8.57;6.53;;;8.80;95.50;;;;;;5059862;28;20068;-76
2024/04/01 03:40:13;;;;;;;10.10;6.68;;;8.80;95.50;;;;;;5060162;28;20047;-75
2024/04/01 03:42:39;;;;;;;9.48;7.00;;;8.80;95.60;;;;;;5053451;28;20147;-75
2024/04/01 03:45:08;;;;;;;8.68;6.72;;;8.80;95.60;;;;;;5069010;28;20105;-75
2024/04/01 03:47:34;;;;;;;8.65;6.68;;;8.80;95.60;;;;;;5059414;28;20638;-76
2024/04/01 03:50:00;;;;;;;9.48;6.85;;;8.80;95.60;;;;;;5057869;28;20036;-75
2024/04/01 03:52:25;;;;;;;10.45;7.00;;;8.70;95.70;;;;;;5052703;28;20033;-75
2024/04/01 03:54:51;;;;;;;10.43;6.90;;;8.70;95.70;;;;;;5048597;28;20354;-75
2024/04/01 03:57:17;;;;;;;9.55;7.05;;;8.80;95.80;;;;;;5058535;28;20064;-76
2024/04/01 03:59:43;;;;;;;9.27;6.90;;;8.80;95.70;;;;;;5063640;28;20029;-75
2024/04/01 04:02:08;;;;;;;10.30;6.88;;;8.70;95.70;;;;;;5054693;28;20108;-76
2024/04/01 04:04:35;;;;;;;8.90;6.53;;;8.80;95.80;;;;;;5042860;28;20124;-77
2024/04/01 04:07:01;;;;;;;9.55;6.78;;;8.80;95.80;;;;;;5062708;28;20036;-75
2024/04/01 04:09:27;;;;;;;11.00;6.55;;;8.70;95.80;;;;;;5056980;28;21759;-76
2024/04/01 04:11:52;;;;;;;9.05;7.40;;;8.80;95.80;;;;;;5052724;28;20467;-76
2024/04/01 04:14:20;;;;;;;9.20;6.82;;;8.70;95.80;;;;;;5056140;28;20016;-76
2024/04/01 04:16:46;;;;;;;9.32;7.15;;;8.70;95.80;;;;;;5058413;28;20037;-75
2024/04/01 04:19:13;;;;;;;9.77;6.78;;;8.70;95.80;;;;;;5060115;28;20037;-77
2024/04/01 04:21:39;;;;;;;8.70;6.70;;;8.70;95.70;;;;;;5050067;28;20087;-76
2024/04/01 04:24:05;;;;;;;9.23;6.88;;;8.70;95.70;;;;;;5059189;28;20055;-76
2024/04/01 04:26:30;;;;;;;8.88;6.45;;;8.60;95.70;;;;;;5062778;28;20029;-76
2024/04/01 04:28:56;;;;;;;8.55;6.65;;;8.60;95.70;;;;;;5059705;28;20020;-78
2024/04/01 04:31:22;;;;;;;9.57;6.70;;;8.70;95.70;;;;;;5054370;28;20921;-76
2024/04/01 04:33:48;;;;;;;11.02;7.20;;;8.60;95.70;;;;;;5054756;28;20025;-76
2024/04/01 04:36:13;;;;;;;8.98;6.35;;;8.60;95.70;;;;;;5057274;28;20873;-75
2024/04/01 04:38:39;;;;;;;8.65;6.55;;;8.60;95.60;;;;;;5058057;28;20055;-76
2024/04/01 04:41:05;;;;;;;8.38;6.15;;;8.60;95.60;;;;;;5055979;28;20033;-76
2024/04/01 04:43:31;;;;;;;10.82;6.57;;;8.60;95.60;;;;;;5055988;28;20027;-77
2024/04/01 04:45:59;;;;;;;7.40;5.55;;;8.60;95.60;;;;;;5048679;28;20040;-75
2024/04/01 04:48:26;;;;;;;9.52;6.10;;;8.60;95.60;;;;;;5056010;28;20032;-75
2024/04/01 04:50:52;;;;;;;8.00;6.00;;;8.60;95.50;;;;;;5056385;28;20027;-74
2024/04/01 04:53:18;;;;;;;8.43;5.80;;;8.60;95.50;;;;;;5038782;28;20037;-75
2024/04/01 04:55:44;;;;;;;8.75;5.80;;;8.60;95.40;;;;;;5052301;28;20024;-75
2024/04/01 04:58:10;;;;;;;9.85;5.65;;;8.60;95.30;;;;;;5058126;28;20089;-75
2024/04/01 05:00:36;;;;;;;7.60;5.18;;;8.60;95.30;;;;;;5040202;28;20465;-74
2024/04/01 05:03:05;;;;;;;10.50;5.43;;;8.60;95.30;;;;;;5039633;28;20028;-75
2024/04/01 05:05:31;;;;;;;8.30;5.28;;;8.60;95.20;;;;;;5060472;28;20033;-75
2024/04/01 05:07:57;;;;;;;7.25;5.13;;;8.50;95.20;;;;;;5040165;28;20021;-74
2024/04/01 05:10:22;;;;;;;7.57;4.70;;;8.50;95.10;;;;;;5056877;28;20032;-74
2024/04/01 05:12:48;;;;;;;6.90;4.60;;;8.50;95.20;;;;;;5052303;28;20097;-76
2024/04/01 05:15:14;;;;;;;8.07;5.07;;;8.50;95.10;;;;;;5058578;28;20365;-76
2024/04/01 05:17:39;;;;;;;8.98;4.70;;;8.60;95.00;;;;;;5057368;28;20037;-77
2024/04/01 05:20:05;;;;;;;7.28;4.53;;;8.50;95.00;;;;;;5057170;28;21458;-76
2024/04/01 05:22:31;;;;;;;6.93;4.38;;;8.50;94.90;;;;;;5052041;28;20681;-76
2024/04/01 05:24:57;;;;;;;8.65;4.53;;;8.50;94.90;;;;;;5055285;28;20049;-76
2024/04/01 05:27:24;;;;;;;9.38;4.45;;;8.50;94.90;;;;;;5058450;28;20815;-76
2024/04/01 05:30:03;;;;;;;7.90;4.68;;;8.50;94.80;;;;;;5056431;28;20040;-75
2024/04/01 05:32:32;;;;;;;7.63;4.32;;;8.50;94.80;;;;;;5055706;28;20041;-76
2024/04/01 05:34:58;;;;;;;7.28;4.25;;;8.50;94.80;;;;;;5055929;28;20405;-76
2024/04/01 05:37:25;;;;;;;7.30;4.25;;;8.60;94.70;;;;;;5056958;28;20056;-76
2024/04/01 05:39:51;;;;;;;9.30;4.20;;;8.60;94.60;;;;;;5057463;28;20044;-76
2024/04/01 05:42:20;;;;;;;6.95;4.43;;;8.60;94.50;;;;;;5056708;28;20047;-74
2024/04/01 05:44:49;;;;;;;9.38;4.38;;;8.60;94.50;;;;;;5063250;28;20036;-76
2024/04/01 05:47:15;;;;;;;6.95;3.88;;;8.60;94.40;;;;;;5055117;28;20039;-76
2024/04/01 05:49:41;;;;;;;6.43;4.15;;;8.60;94.30;;;;;;5057570;28;20473;-75
2024/04/01 05:52:07;;;;;;;6.47;3.80;;;8.60;94.30;;;;;;5038351;28;20042;-76
2024/04/01 05:54:33;;;;;;;5.57;3.65;;;8.60;94.30;;;;;;5052306;28;20128;-75
2024/04/01 05:56:59;;;;;;;7.80;4.30;;;8.60;94.20;;;;;;5054993;28;20031;-75
2024/04/01 05:59:26;;;;;;;6.78;4.30;;;8.70;94.10;;;;;;5058959;28;20814;-74
2024/04/01 06:01:56;;;;;;;6.63;4.05;;;8.70;93.90;;;;;;5049119;28;20036;-75
2024/04/01 06:04:23;;;;;;;7.70;4.00;;;8.70;93.90;;;;;;5054036;28;20024;-75
2024/04/01 06:06:48;;;;;;;7.93;4.40;;;8.70;93.80;;;;;;5062343;28;20472;-74
2024/04/01 06:09:14;;;;;;;7.88;4.35;;;8.70;93.80;;;;;;5055452;28;20086;-74
2024/04/01 06:11:40;;;;;;;7.72;4.47;;;8.70;93.70;;;;;;5057182;28;20041;-74
2024/04/01 06:14:07;;;;;;;8.93;4.55;;;8.80;93.60;;;;;;5053573;28;20138;-75
2024/04/01 06:16:36;;;;;;;5.53;3.65;;;8.80;93.60;;;;;;5052352;28;20036;-75
2024/04/01 06:19:02;;;;;;;8.25;4.10;;;8.90;93.50;;;;;;5058606;28;20028;-74
2024/04/01 06:21:28;;;;;;;6.90;4.10;;;8.90;93.50;;;;;;5055202;28;20063;-74
2024/04/01 06:23:54;;;;;;;9.25;4.45;;;8.90;93.40;;;;;;5060009;28;20032;-75
2024/04/01 06:26:19;;;;;;;7.18;4.20;;;9.00;93.40;;;;;;5056182;28;20380;-75
2024/04/01 06:28:48;;;;;;;10.88;4.53;;;9.00;93.30;;;;;;5056696;28;20484;-75
2024/04/01 06:31:14;;;;;;;9.15;4.50;;;9.00;93.20;;;;;;5066100;28;20118;-74
2024/04/01 06:33:40;;;;;;;8.05;4.35;;;9.10;93.10;;;;;;5060526;28;20028;-75
2024/04/01 06:36:06;;;;;;;9.88;4.63;;;9.10;92.90;;;;;;5044986;28;20096;-75
2024/04/01 06:38:32;;;;;;;9.20;5.18;;;9.10;92.80;;;;;;5059274;28;20047;-76
2024/04/01 06:40:58;;;;;;;7.38;4.65;;;9.20;92.70;;;;;;5058402;28;20037;-74
2024/04/01 06:43:24;;;;;;;9.57;5.20;;;9.20;92.70;;;;;;5058166;28;20323;-74
2024/04/01 06:45:58;;;;;;;8.57;5.25;;;9.30;92.50;;;;;;5056664;28;20142;-75
2024/04/01 06:48:24;;;;;;;9.38;5.47;;;9.30;92.50;;;;;;5055421;28;20671;-74
2024/04/01 06:50:50;;;;;;;8.55;4.85;;;9.40;92.50;;;;;;5056319;28;20028;-75
2024/04/01 06:53:17;;;;;;;8.85;4.75;;;9.50;92.30;;;;;;5061751;28;20468;-75
2024/04/01 06:55:46;;;;;;;7.80;4.70;;;9.50;92.20;;;;;;5057112;28;20052;-73
2024/04/01 06:58:13;;;;;;;8.23;5.03;;;9.60;92.20;;;;;;5057811;28;20029;-75
2024/04/01 07:00:39;;;;;;;8.52;5.10;;;9.60;92.00;;;;;;5051549;28;20461;-75
2024/04/01 07:03:05;;;;;;;8.10;4.88;;;9.70;91.80;;;;;;5057108;28;20024;-74
2024/04/01 07:05:32;;;;;;;7.45;4.45;;;9.80;91.60;;;;;;5053212;28;20024;-75
2024/04/01 07:07:58;;;;;;;8.23;4.60;;;9.80;91.70;;;;;;5040228;28;20718;-75
2024/04/01 07:10:24;;;;;;;8.88;5.18;;;9.80;91.50;;;;;;5056868;28;20044;-74
2024/04/01 07:12:50;;;;;;;7.40;4.30;;;9.90;91.20;;;;;;5055341;28;20032;-76
2024/04/01 07:15:16;;;;;;;8.05;4.32;;;10.00;91.20;;;;;;5055735;28;20386;-77
2024/04/01 07:17:43;;;;;;;6.85;4.60;;;10.10;91.20;;;;;;5047734;28;20742;-74
2024/04/01 07:20:09;;;;;;;7.38;4.95;;;10.10;91.00;;;;;;5059784;28;20040;-76
2024/04/01 07:22:36;;;;;;;12.05;5.28;;;10.10;90.70;;;;;;5048131;28;20124;-77
2024/04/01 07:25:04;;;;;;;7.47;4.38;;;10.20;90.60;;;;;;5053783;28;20885;-74
2024/04/01 07:27:34;;;;;;;7.57;4.65;;;10.10;90.10;;;;;;5057871;28;20047;-74
2024/04/01 07:30:06;;;;;;;6.70;4.20;;;10.20;90.10;;;;;;5058725;28;20432;-77
2024/04/01 07:32:33;;;;;;;7.53;4.28;;;10.20;90.20;;;;;;5058944;28;20133;-75
2024/04/01 07:35:00;;;;;;;8.02;4.60;;;10.20;90.20;;;;;;5059528;28;20070;-75
2024/04/01 07:37:26;;;;;;;9.32;5.07;;;10.30;89.90;;;;;;5064470;28;20092;-76
2024/04/01 07:39:54;;;;;;;7.32;4.40;;;10.30;89.80;;;;;;5056055;28;20036;-75
2024/04/01 07:42:20;;;;;;;8.10;4.68;;;10.40;89.80;;;;;;5053415;28;20033;-77
2024/04/01 07:44:47;;;;;;;6.38;4.15;;;10.40;89.70;;;;;;5057861;28;20131;-76
2024/04/01 07:47:13;;;;;;;7.70;5.07;;;10.50;89.60;;;;;;5047461;28;20028;-75
2024/04/01 07:49:38;;;;;;;7.90;4.78;;;10.50;89.40;;;;;;5058027;28;20044;-75
2024/04/01 07:52:05;;;;;;;8.02;4.88;;;10.40;89.40;;;;;;5058653;28;20064;-75
2024/04/01 07:54:31;;;;;;;8.23;4.10;;;10.50;89.30;;;;;;5057577;28;20070;-75
2024/04/01 07:57:02;;;;;;;7.03;4.70;;;10.50;89.60;;;;;;5059100;28;20539;-75
2024/04/01 07:59:32;;;;;;;9.18;5.25;;;10.60;89.50;;;;;;5041008;28;20078;-75
2024/04/01 08:02:00;;;;;;;8.00;5.30;;;10.60;89.50;;;;;;5058135;28;20016;-76
2024/04/01 08:04:27;;;;;;;9.30;4.30;;;10.70;89.10;;;;;;5060222;28;20063;-75
2024/04/01 08:06:53;;;;;;;8.02;3.95;;;10.80;88.70;;;;;;5058002;28;20040;-75
2024/04/01 08:09:20;;;;;;;9.38;4.43;;;10.80;88.60;;;;;;5058620;28;20056;-75
2024/04/01 08:11:49;;;;;;;7.45;4.60;;;11.00;88.60;;;;;;5058744;28;20137;-75
2024/04/01 08:14:17;;;;;;;7.93;4.93;;;11.00;88.40;;;;;;5056630;28;20491;-75
2024/04/01 08:16:43;;;;;;;7.38;4.63;;;11.20;88.30;;;;;;5048107;28;20422;-75
2024/04/01 08:19:09;;;;;;;6.22;4.15;;;11.40;87.90;;;;;;5043005;28;20025;-74
2024/04/01 08:21:34;;;;;;;8.00;3.88;;;11.60;87.50;;;;;;5055651;28;20029;-74
2024/04/01 08:24:00;;;;;;;6.20;3.88;;;11.70;86.70;;;;;;5058841;28;20452;-76
2024/04/01 08:26:26;;;;;;;8.85;3.83;;;11.90;86.40;;;;;;5054896;28;20286;-76
2024/04/01 08:28:51;;;;;;;6.32;3.60;;;11.90;86.00;;;;;;5058690;28;20020;-76
2024/04/01 08:31:17;;;;;;;6.07;3.85;;;12.10;86.00;;;;;;5058262;28;20129;-76
2024/04/01 08:33:43;;;;;;;6.20;3.70;;;12.20;85.10;;;;;;5061172;28;20418;-77
2024/04/01 08:36:09;;;;;;;7.03;3.83;;;12.40;85.00;;;;;;5056211;28;20037;-75
2024/04/01 08:38:34;;;;;;;7.22;3.63;;;12.60;84.80;;;;;;5038920;28;20676;-75
2024/04/01 08:41:17;;;;;;;6.85;3.50;;;12.70;83.60;;;;;;5052222;28;20484;-75
2024/04/01 08:43:51;;;;;;;7.50;3.70;;;12.80;82.90;;;;;;5060084;28;20032;-75
2024/04/01 08:46:17;;;;;;;6.75;3.70;;;12.80;82.30;;;;;;5055308;28;20037;-75
2024/04/01 08:48:49;;;;;;;6.78;3.72;;;13.10;82.50;;;;;;5059229;28;20062;-74
2024/04/01 08:51:19;;;;;;;5.80;3.20;;;13.20;82.20;;;;;;5057754;28;20693;-74
2024/04/01 08:54:00;;;;;;;6.95;3.85;;;13.40;80.90;;;;;;5058492;28;20084;-74
2024/04/01 08:56:28;;;;;;;5.53;3.15;;;13.50;80.90;;;;;;5047559;28;20075;-74
2024/04/01 08:58:56;;;;;;;6.18;3.42;;;13.60;80.70;;;;;;5058629;28;20020;-75
2024/04/01 09:01:22;;;;;;;6.15;3.30;;;13.70;80.20;;;;;;5056255;28;20129;-75
2024/04/01 09:03:48;;;;;;;5.80;3.50;;;13.70;80.20;;;;;;5052940;28;20037;-75
2024/04/01 09:06:17;;;;;;;5.70;3.53;;;13.80;80.20;;;;;;5056524;28;20021;-75
2024/04/01 09:08:45;;;;;;;5.97;2.83;;;13.90;79.10;;;;;;5057850;28;20028;-75
2024/04/01 09:11:11;;;;;;;7.22;3.67;;;14.10;79.00;;;;;;5057076;28;20036;-75
2024/04/01 09:13:37;;;;;;;6.00;3.47;;;13.90;78.50;;;;;;5038847;28;20047;-77
2024/04/01 09:16:03;;;;;;;7.40;3.60;;;13.90;79.10;;;;;;5056894;28;20048;-77
2024/04/01 09:18:31;;;;;;;6.25;3.70;;;13.90;78.60;;;;;;5057562;28;20024;-76
2024/04/01 09:20:57;;;;;;;5.65;3.47;;;13.80;78.70;;;;;;5057727;28;20035;-75
2024/04/01 09:23:23;;;;;;;7.70;4.00;;;13.70;78.80;;;;;;5054233;28;20027;-75
2024/04/01 09:25:51;;;;;;;6.45;3.60;;;13.70;79.20;;;;;;5047336;28;20041;-75
2024/04/01 09:28:16;;;;;;;5.63;3.22;;;13.90;79.30;;;;;;5056367;28;20484;-75
2024/04/01 09:30:42;;;;;;;6.68;3.95;;;13.90;78.30;;;;;;5057738;28;20048;-75
2024/04/01 09:33:08;;;;;;;4.28;3.17;;;13.90;79.00;;;;;;5054976;28;20811;-75
2024/04/01 09:35:34;;;;;;;7.68;3.38;;;14.10;79.00;;;;;;5054687;28;21176;-75
2024/04/01 09:37:59;;;;;;;6.45;3.65;;;14.10;78.00;;;;;;5058419;28;20048;-75
2024/04/01 09:40:25;;;;;;;6.95;3.33;;;14.30;77.90;;;;;;5054585;28;20058;-76
2024/04/01 09:42:57;;;;;;;5.45;3.67;;;14.40;78.60;;;;;;5056438;28;20040;-76
2024/04/01 09:45:23;;;;;;;5.93;3.58;;;14.60;78.40;;;;;;5054285;28;20028;-78
2024/04/01 09:47:49;;;;;;;7.40;3.72;;;14.60;76.80;;;;;;5046018;28;20470;-78
2024/04/01 09:50:17;;;;;;;6.63;3.78;;;14.70;76.50;;;;;;5051271;28;20039;-78
2024/04/01 09:52:43;;;;;;;6.35;3.88;;;14.70;76.40;;;;;;5052241;28;20485;-78
2024/04/01 09:55:22;;;;;;;6.85;3.85;;;14.80;76.00;;;;;;5052365;28;20031;-77
2024/04/01 09:58:09;;;;;;;6.80;3.60;;;14.90;75.90;;;;;;5054554;28;20028;-79
2024/04/01 10:01:09;;;;;;;7.10;3.92;;;14.90;75.90;;;;;;5054855;28;20041;-78
2024/04/01 10:04:04;;;;;;;7.65;3.80;;;14.70;76.10;;;;;;5054660;28;20020;-80
2024/04/01 10:07:01;;;;;;;7.13;3.97;;;14.90;76.80;;;;;;5053741;28;20044;-78
2024/04/01 10:09:45;;;;;;;7.82;3.90;;;14.80;76.80;;;;;;5049793;28;20025;-79
2024/04/01 10:12:23;;;;;;;5.90;3.83;;;15.00;76.30;;;;;;5048785;28;20029;-78
2024/04/01 10:15:22;;;;;;;6.43;4.00;;;15.20;75.30;;;;;;5055190;28;20392;-77
2024/04/01 10:17:47;;;;;;;10.10;3.80;;;15.20;75.50;;;;;;5052525;28;20045;-78
2024/04/01 10:20:49;;;;;;;6.47;3.55;;;15.40;74.30;;;;;;5049294;28;20047;-77
2024/04/01 10:24:16;;;;;;;6.00;3.50;;;15.40;74.50;;;;;;5054074;28;20032;-77
2024/04/01 10:26:50;;;;;;;6.55;3.95;;;15.50;73.50;;;;;;4969499;28;20126;-76
2024/04/01 10:29:35;;;;;;;7.65;4.13;;;15.50;74.30;;;;;;4970628;28;20038;-75
2024/04/01 10:32:22;;;;;;;6.55;3.15;;;15.60;74.80;;;;;;5011516;28;20190;-76
2024/04/01 10:35:09;;;;;;;6.55;3.63;;;15.50;74.40;;;;;;5036086;28;20373;-77
2024/04/01 10:37:57;;;;;;;9.57;3.97;;;15.70;74.90;;;;;;5036222;28;20056;-78
2024/04/01 10:40:53;;;;;;;5.65;3.67;;;15.70;74.10;;;;;;5035054;28;20029;-78
2024/04/01 10:43:39;;;;;;;5.93;3.60;;;16.00;73.90;;;;;;5033423;28;20060;-78
2024/04/01 10:46:42;;;;;;;8.55;3.60;;;15.80;72.70;;;;;;4993357;28;20025;-77
2024/04/01 10:49:28;;;;;;;5.65;3.50;;;16.10;72.60;;;;;;5037327;28;20033;-81
2024/04/01 10:52:32;;;;;;;6.70;3.45;;;16.20;72.20;;;;;;5032290;28;20068;-79
2024/04/01 10:55:01;;;;;;;6.68;3.08;;;16.10;71.50;;;;;;5029590;28;20120;-80
2024/04/01 10:57:47;;;;;;;5.80;3.10;;;16.10;71.20;;;;;;5034343;28;20124;-80
2024/04/01 11:00:28;;;;;;;8.70;3.10;;;16.10;70.70;;;;;;5018183;28;20066;-79
2024/04/01 11:03:03;;;;;;;5.63;3.08;;;15.90;70.50;;;;;;5034969;28;20120;-78
2024/04/01 11:05:43;;;;;;;;;;;16.10;70.40;;;;;;5024707;28;20029;-77
2024/04/01 11:08:24;;;;;;;5.55;2.70;;;16.10;71.10;;;;;;5038427;28;20091;-77
2024/04/01 11:11:08;;;;;;;5.40;2.63;;;16.50;71.20;;;;;;5039300;28;20094;-77
2024/04/01 11:13:37;;;;;;;7.38;2.97;;;16.50;68.70;;;;;;5039352;28;20028;-77
2024/04/01 11:16:04;;;;;;;4.47;2.40;;;16.40;68.10;;;;;;5036743;28;20037;-78
2024/04/01 11:19:15;;;;;;;6.10;2.67;;;16.10;68.80;;;;;;5040442;28;20687;-80
2024/04/01 11:21:51;;;;;;;7.97;2.55;;;15.80;69.30;;;;;;4958334;28;20041;-80
2024/04/01 11:24:33;;;;;;;4.60;2.50;;;15.60;69.30;;;;;;5039940;28;20028;-79
2024/04/01 11:27:21;;;;;;;3.72;2.40;;;15.40;69.00;;;;;;5056580;28;20649;-80
2024/04/01 11:30:21;;;;;;;3.75;2.20;;;15.40;69.20;;;;;;5052758;28;20033;-77
2024/04/01 11:33:01;;;;;;;5.95;2.22;;;15.20;70.00;;;;;;5039306;28;20461;-79
2024/04/01 11:35:46;;;;;;;4.60;2.15;;;15.10;70.10;;;;;;5053862;28;20032;-80
2024/04/01 11:38:35;;;;;;;3.13;1.98;;;15.10;70.30;;;;;;5056542;28;20365;-77
2024/04/01 11:41:05;;;;;;;6.72;2.53;;;15.10;70.80;;;;;;5056241;28;20492;-79
2024/04/01 11:43:34;;;;;;;7.13;3.13;;;15.10;70.30;;;;;;5056338;28;20020;-77
2024/04/01 11:46:01;;;;;;;6.72;3.03;;;15.30;71.00;;;;;;5055454;28;20112;-76
2024/04/01 11:48:27;;;;;;;5.05;2.08;;;15.50;70.10;;;;;;5055808;28;20135;-80
2024/04/01 11:50:59;;;;;;;5.07;1.92;;;15.40;68.00;;;;;;5055625;28;20147;-78
2024/04/01 11:53:25;;;;;;;4.55;1.77;;;15.20;66.40;;;;;;5054919;28;20123;-78
2024/04/01 11:56:00;;;;;;;4.60;1.80;;;15.30;66.30;;;;;;5058712;28;20033;-80
2024/04/01 11:58:26;;;;;;;4.68;1.80;;;15.30;66.40;;;;;;5054553;28;20090;-79
2024/04/01 12:00:57;;;;;;;3.50;1.52;;;15.40;65.40;;;;;;5056751;28;20025;-76
2024/04/01 12:03:36;;;;;;;3.22;1.60;;;15.50;65.70;;;;;;5057157;28;20032;-78
2024/04/01 12:06:05;;;;;;;4.68;1.52;;;15.40;65.30;;;;;;5054354;28;20033;-80
2024/04/01 12:08:32;;;;;;;4.63;1.95;;;15.40;65.90;;;;;;5052932;28;20476;-79
2024/04/01 12:11:02;;;;;;;5.20;1.77;;;15.50;66.30;;;;;;5054838;28;20040;-77
2024/04/01 12:13:28;;;;;;;5.40;1.60;;;15.40;65.50;;;;;;5054245;28;20048;-78
2024/04/01 12:15:55;;;;;;;4.65;1.77;;;15.60;65.30;;;;;;5052566;28;20404;-78
2024/04/01 12:18:21;;;;;;;4.18;1.65;;;15.80;64.40;;;;;;5057492;28;20017;-78
2024/04/01 12:20:54;;;;;;;3.10;1.35;;;15.80;63.40;;;;;;5057128;28;20143;-77
2024/04/01 12:23:22;;;;;;;4.13;1.52;;;15.70;63.20;;;;;;5043692;28;20029;-78
2024/04/01 12:25:48;;;;;;;3.25;1.52;;;15.70;64.30;;;;;;5056212;28;20186;-78
2024/04/01 12:28:15;;;;;;;5.35;1.52;;;15.70;64.60;;;;;;5050854;28;20028;-79
2024/04/01 12:30:42;;;;;;;4.93;1.65;;;15.60;64.40;;;;;;5055370;28;20433;-78
2024/04/01 12:33:10;;;;;;;3.65;1.50;;;15.60;63.00;;;;;;5055572;28;20024;-77
2024/04/01 12:35:37;;;;;;;2.40;1.38;;;15.60;63.80;;;;;;5053354;28;20090;-78
2024/04/01 12:38:04;;;;;;;6.85;2.15;;;15.80;65.00;;;;;;5056675;28;20016;-77
2024/04/01 12:40:51;;;;;;;4.75;1.77;;;15.80;65.40;;;;;;5054782;28;20044;-76
2024/04/01 12:43:20;;;;;;;7.05;1.80;;;16.10;65.30;;;;;;5049303;28;20650;-78
2024/04/01 12:45:46;;;;;;;4.68;1.85;;;16.10;64.10;;;;;;5057090;28;20374;-77
2024/04/01 12:48:14;;;;;;;5.07;1.40;;;15.90;64.80;;;;;;5057261;28;20022;-77
2024/04/01 12:50:45;;;;;;;4.47;1.50;;;15.80;64.80;;;;;;5053673;28;20057;-77
2024/04/01 12:53:41;;;;;;;5.85;2.28;;;15.70;65.50;;;;;;5049983;28;20089;-76
2024/04/01 12:56:31;;;;;;;4.75;1.80;;;15.40;66.80;;;;;;5053139;28;20083;-77
2024/04/01 12:59:09;;;;;;;6.38;1.85;;;15.30;68.00;;;;;;5057387;28;20032;-76
2024/04/01 13:01:49;;;;;;;3.80;1.65;;;15.40;68.60;;;;;;5051593;28;20649;-77
2024/04/01 13:04:59;;;;;;;3.20;1.50;;;15.70;68.80;;;;;;5056966;28;20025;-77